Time,TemperatureF,DewpointF,PressureIn,WindDirection,WindDirectionDegrees,WindSpeedMPH,WindSpeedGustMPH,Humidity,HourlyPrecipIn,Conditions,Clouds,dailyrainin,SoftwareType,DateUTC
2013-11-16 00:00:00,48.2,47.1,30.23,SSW,202,0.0,0.0,96,0.01,,---,0.00,VWS V14.01,2013-11-16 05:00:00,
2013-11-16 00:05:00,48.2,47.1,30.23,SSW,202,0.0,0.0,96,0.01,,---,0.00,VWS V14.01,2013-11-16 05:05:00,
2013-11-16 00:10:00,48.2,47.1,30.23,SSW,202,0.0,0.0,96,0.01,,---,0.00,VWS V14.01,2013-11-16 05:10:00,
2013-11-16 00:15:00,48.2,47.1,30.22,SSW,202,0.0,0.0,96,0.01,,---,0.00,VWS V14.01,2013-11-16 05:15:00,
2013-11-16 00:20:00,48.2,47.1,30.23,SSW,202,0.0,0.0,96,0.01,,---,0.00,VWS V14.01,2013-11-16 05:20:00,
2013-11-16 00:25:00,48.2,47.1,30.23,SSW,202,0.0,0.0,96,0.01,,---,0.00,VWS V14.01,2013-11-16 05:25:00,
2013-11-16 00:30:00,48.2,47.1,30.23,SSW,202,0.0,0.0,96,0.01,,---,0.00,VWS V14.01,2013-11-16 05:30:00,
2013-11-16 00:35:00,48.1,47.0,30.22,SSW,202,0.0,0.0,96,0.01,,---,0.00,VWS V14.01,2013-11-16 05:35:00,
2013-11-16 00:40:00,48.1,47.0,30.22,SSW,202,0.0,0.0,96,0.00,,---,0.00,VWS V14.01,2013-11-16 05:40:00,
2013-11-16 00:45:00,48.1,47.0,30.22,SSW,202,0.0,0.0,96,0.00,,---,0.00,VWS V14.01,2013-11-16 05:45:00,
2013-11-16 00:50:00,48.1,47.3,30.22,SSW,202,0.0,0.0,97,0.00,,---,0.00,VWS V14.01,2013-11-16 05:50:00,
2013-11-16 00:55:00,48.0,46.9,30.22,SSW,202,0.0,0.0,96,0.00,,---,0.00,VWS V14.01,2013-11-16 05:55:00,
2013-11-16 01:00:00,48.0,46.9,30.22,SSW,202,0.0,0.0,96,0.00,,---,0.00,VWS V14.01,2013-11-16 06:00:00,
2013-11-16 01:05:00,48.0,46.9,30.22,SSW,202,0.0,0.0,96,0.00,,---,0.00,VWS V14.01,2013-11-16 06:05:00,
2013-11-16 01:10:00,47.9,46.8,30.22,SSW,202,0.0,0.0,96,0.00,,---,0.00,VWS V14.01,2013-11-16 06:10:00,
2013-11-16 01:15:00,47.9,47.1,30.22,SSW,202,0.0,0.0,97,0.00,,---,0.00,VWS V14.01,2013-11-16 06:15:00,
2013-11-16 01:20:00,47.9,47.1,30.22,SSW,202,0.0,0.0,97,0.00,,---,0.00,VWS V14.01,2013-11-16 06:20:00,
2013-11-16 01:25:00,47.9,47.1,30.21,SSW,202,0.0,0.0,97,0.00,,---,0.00,VWS V14.01,2013-11-16 06:25:00,
2013-11-16 01:30:00,47.9,46.8,30.22,SSW,202,0.0,0.0,96,0.00,,---,0.00,VWS V14.01,2013-11-16 06:30:00,
2013-11-16 01:35:00,47.9,47.1,30.21,SSW,202,0.0,0.0,97,0.00,,---,0.00,VWS V14.01,2013-11-16 06:35:00,
2013-11-16 01:40:00,47.9,47.1,30.21,SSW,202,0.0,0.0,97,0.00,,---,0.00,VWS V14.01,2013-11-16 06:40:00,
2013-11-16 01:45:00,47.9,47.1,30.21,SSW,202,0.0,0.0,97,0.00,,---,0.00,VWS V14.01,2013-11-16 06:45:00,
2013-11-16 01:50:00,47.9,46.8,30.21,SSW,202,0.0,1.0,96,0.01,,---,0.01,VWS V14.01,2013-11-16 06:50:00,
2013-11-16 01:55:00,47.9,47.1,30.21,SSW,202,0.0,0.0,97,0.01,,---,0.01,VWS V14.01,2013-11-16 06:55:00,
2013-11-16 02:00:00,47.9,47.1,30.22,SSW,202,0.0,1.0,97,0.01,,---,0.01,VWS V14.01,2013-11-16 07:00:00,
2013-11-16 02:05:00,47.9,47.1,30.22,SSW,202,0.0,0.0,97,0.01,,---,0.01,VWS V14.01,2013-11-16 07:05:00,
2013-11-16 02:10:00,47.9,47.1,30.22,SSW,202,0.0,0.0,97,0.01,,---,0.01,VWS V14.01,2013-11-16 07:10:00,
2013-11-16 02:15:00,47.9,47.1,30.22,SSW,202,0.0,0.0,97,0.01,,---,0.01,VWS V14.01,2013-11-16 07:15:00,
2013-11-16 02:20:00,47.9,47.1,30.22,SSW,202,0.0,0.0,97,0.01,,---,0.01,VWS V14.01,2013-11-16 07:20:00,
2013-11-16 02:25:00,47.9,47.1,30.22,SSW,202,0.0,0.0,97,0.01,,---,0.01,VWS V14.01,2013-11-16 07:25:00,
2013-11-16 02:30:00,48.0,47.2,30.22,SSW,202,0.0,0.0,97,0.01,,---,0.01,VWS V14.01,2013-11-16 07:30:00,
2013-11-16 02:35:00,48.0,47.2,30.22,SSW,202,0.0,0.0,97,0.01,,---,0.01,VWS V14.01,2013-11-16 07:35:00,
2013-11-16 02:40:00,48.0,47.2,30.22,SSW,202,0.0,0.0,97,0.01,,---,0.01,VWS V14.01,2013-11-16 07:40:00,
2013-11-16 02:45:00,48.0,47.2,30.22,SSW,202,0.0,0.0,97,0.01,,---,0.01,VWS V14.01,2013-11-16 07:45:00,
2013-11-16 02:50:00,48.0,47.2,30.23,SSW,202,0.0,0.0,97,0.01,,---,0.01,VWS V14.01,2013-11-16 07:50:00,
2013-11-16 02:55:00,48.0,47.2,30.22,SSW,202,0.0,2.0,97,0.00,,---,0.01,VWS V14.01,2013-11-16 07:55:00,
2013-11-16 03:00:00,48.0,47.2,30.21,SSW,202,1.0,2.0,97,0.00,,---,0.01,VWS V14.01,2013-11-16 08:00:00,
2013-11-16 03:05:00,47.9,47.1,30.21,SSW,202,0.0,1.0,97,0.00,,---,0.01,VWS V14.01,2013-11-16 08:05:00,
2013-11-16 03:10:00,47.9,47.1,30.21,SSW,202,1.0,2.0,97,0.00,,---,0.01,VWS V14.01,2013-11-16 08:10:00,
2013-11-16 03:15:00,47.8,47.0,30.20,SSW,202,0.0,0.0,97,0.00,,---,0.01,VWS V14.01,2013-11-16 08:15:00,
2013-11-16 03:20:00,47.7,46.9,30.20,SSW,202,0.0,0.0,97,0.00,,---,0.01,VWS V14.01,2013-11-16 08:20:00,
2013-11-16 03:25:00,47.6,46.8,30.20,SSW,202,0.0,0.0,97,0.00,,---,0.01,VWS V14.01,2013-11-16 08:25:00,
2013-11-16 03:30:00,47.3,46.5,30.20,SSW,202,0.0,0.0,97,0.00,,---,0.01,VWS V14.01,2013-11-16 08:30:00,
2013-11-16 03:35:00,47.3,46.5,30.20,SSW,202,0.0,0.0,97,0.00,,---,0.01,VWS V14.01,2013-11-16 08:35:00,
2013-11-16 03:40:00,47.3,46.5,30.20,SSW,202,1.0,2.0,97,0.00,,---,0.01,VWS V14.01,2013-11-16 08:40:00,
2013-11-16 03:45:00,47.3,46.5,30.20,SSW,202,1.0,2.0,97,0.00,,---,0.01,VWS V14.01,2013-11-16 08:45:00,
2013-11-16 03:50:00,47.4,46.6,30.19,SSW,202,0.0,1.0,97,0.00,,---,0.01,VWS V14.01,2013-11-16 08:50:00,
2013-11-16 03:55:00,47.3,46.5,30.19,SSW,202,0.0,0.0,97,0.00,,---,0.01,VWS V14.01,2013-11-16 08:55:00,
2013-11-16 04:00:00,47.1,46.3,30.20,SSW,202,0.0,0.0,97,0.00,,---,0.01,VWS V14.01,2013-11-16 09:00:00,
2013-11-16 04:05:00,47.0,46.2,30.20,SSW,202,0.0,0.0,97,0.00,,---,0.01,VWS V14.01,2013-11-16 09:05:00,
2013-11-16 04:10:00,47.1,46.3,30.20,SSW,202,0.0,0.0,97,0.00,,---,0.01,VWS V14.01,2013-11-16 09:10:00,
2013-11-16 04:15:00,47.1,46.3,30.20,SSW,202,0.0,0.0,97,0.00,,---,0.01,VWS V14.01,2013-11-16 09:15:00,
2013-11-16 04:20:00,47.2,46.4,30.20,SSW,202,0.0,0.0,97,0.00,,---,0.01,VWS V14.01,2013-11-16 09:20:00,
2013-11-16 04:25:00,47.3,46.5,30.20,SSW,202,0.0,0.0,97,0.00,,---,0.01,VWS V14.01,2013-11-16 09:25:00,
2013-11-16 04:30:00,47.3,46.5,30.20,SSW,202,0.0,0.0,97,0.00,,---,0.01,VWS V14.01,2013-11-16 09:30:00,
2013-11-16 04:35:00,47.4,46.6,30.20,SSW,202,0.0,0.0,97,0.00,,---,0.01,VWS V14.01,2013-11-16 09:35:00,
2013-11-16 04:40:00,47.4,46.6,30.20,SSW,202,0.0,0.0,97,0.00,,---,0.01,VWS V14.01,2013-11-16 09:40:00,
2013-11-16 04:45:00,47.4,46.6,30.20,SSW,202,0.0,0.0,97,0.00,,---,0.01,VWS V14.01,2013-11-16 09:45:00,
2013-11-16 04:50:00,47.4,46.6,30.20,SSW,202,0.0,1.0,97,0.00,,---,0.01,VWS V14.01,2013-11-16 09:50:00,
2013-11-16 04:55:00,47.4,46.6,30.20,SSW,202,1.0,2.0,97,0.00,,---,0.01,VWS V14.01,2013-11-16 09:55:00,
2013-11-16 05:00:00,47.4,46.6,30.20,SSW,202,1.0,2.0,97,0.00,,---,0.01,VWS V14.01,2013-11-16 10:00:00,
2013-11-16 05:05:00,47.4,46.6,30.20,SSW,202,0.0,2.0,97,0.00,,---,0.01,VWS V14.01,2013-11-16 10:05:00,
2013-11-16 05:10:00,47.4,46.6,30.20,SSW,202,0.0,0.0,97,0.00,,---,0.01,VWS V14.01,2013-11-16 10:10:00,
2013-11-16 05:15:00,47.4,46.6,30.20,SSW,202,0.0,2.0,97,0.00,,---,0.01,VWS V14.01,2013-11-16 10:15:00,
2013-11-16 05:20:00,47.4,46.6,30.20,SSW,202,1.0,2.0,97,0.00,,---,0.01,VWS V14.01,2013-11-16 10:20:00,
2013-11-16 05:25:00,47.4,46.6,30.20,SSW,202,0.0,2.0,97,0.00,,---,0.01,VWS V14.01,2013-11-16 10:25:00,
2013-11-16 05:30:00,47.4,46.6,30.20,SSW,202,0.0,1.0,97,0.00,,---,0.01,VWS V14.01,2013-11-16 10:30:00,
2013-11-16 05:35:00,47.4,46.6,30.21,SSW,202,0.0,0.0,97,0.00,,---,0.01,VWS V14.01,2013-11-16 10:35:00,
2013-11-16 05:40:00,47.4,46.6,30.21,SSW,202,0.0,0.0,97,0.00,,---,0.01,VWS V14.01,2013-11-16 10:40:00,
2013-11-16 05:45:00,47.5,46.7,30.22,SSW,202,0.0,0.0,97,0.00,,---,0.01,VWS V14.01,2013-11-16 10:45:00,
2013-11-16 05:50:00,47.4,46.6,30.22,SSW,202,0.0,0.0,97,0.00,,---,0.01,VWS V14.01,2013-11-16 10:50:00,
2013-11-16 05:55:00,47.4,46.6,30.22,SSW,202,0.0,0.0,97,0.00,,---,0.01,VWS V14.01,2013-11-16 10:55:00,
2013-11-16 06:00:00,47.4,46.6,30.21,SSW,202,0.0,0.0,97,0.00,,---,0.01,VWS V14.01,2013-11-16 11:00:00,
2013-11-16 06:05:00,47.4,46.6,30.21,SSW,202,0.0,0.0,97,0.00,,---,0.01,VWS V14.01,2013-11-16 11:05:00,
2013-11-16 06:10:00,47.5,46.7,30.22,SSW,202,0.0,0.0,97,0.00,,---,0.01,VWS V14.01,2013-11-16 11:10:00,
2013-11-16 06:15:00,47.5,46.7,30.21,SSW,202,0.0,0.0,97,0.00,,---,0.01,VWS V14.01,2013-11-16 11:15:00,
2013-11-16 06:20:00,47.4,46.6,30.21,SSW,202,0.0,0.0,97,0.00,,---,0.01,VWS V14.01,2013-11-16 11:20:00,
2013-11-16 06:25:00,47.4,46.6,30.21,SSW,202,0.0,0.0,97,0.00,,---,0.01,VWS V14.01,2013-11-16 11:25:00,
2013-11-16 06:30:00,47.5,46.7,30.21,SSW,202,0.0,0.0,97,0.00,,---,0.01,VWS V14.01,2013-11-16 11:30:00,
2013-11-16 06:35:00,47.5,46.7,30.21,SSW,202,0.0,0.0,97,0.00,,---,0.01,VWS V14.01,2013-11-16 11:35:00,
2013-11-16 06:40:00,47.5,46.7,30.22,SSW,202,0.0,0.0,97,0.00,,---,0.01,VWS V14.01,2013-11-16 11:40:00,
2013-11-16 06:45:00,47.5,46.7,30.22,SSW,202,0.0,0.0,97,0.00,,---,0.01,VWS V14.01,2013-11-16 11:45:00,
2013-11-16 06:50:00,47.6,46.8,30.22,SSW,202,0.0,2.0,97,0.00,,---,0.01,VWS V14.01,2013-11-16 11:50:00,
2013-11-16 06:55:00,47.6,46.8,30.21,SSW,202,0.0,0.0,97,0.00,,---,0.01,VWS V14.01,2013-11-16 11:55:00,
2013-11-16 07:00:00,47.6,46.8,30.22,SSW,202,0.0,0.0,97,0.00,,---,0.01,VWS V14.01,2013-11-16 12:00:00,
2013-11-16 07:05:00,47.6,46.8,30.22,SSW,202,0.0,0.0,97,0.00,,---,0.01,VWS V14.01,2013-11-16 12:05:00,
2013-11-16 07:10:00,47.7,46.9,30.23,SSW,202,0.0,0.0,97,0.00,,---,0.01,VWS V14.01,2013-11-16 12:10:00,
2013-11-16 07:15:00,47.7,46.9,30.23,SSW,202,0.0,0.0,97,0.00,,---,0.01,VWS V14.01,2013-11-16 12:15:00,
2013-11-16 07:20:00,47.7,46.9,30.23,SSW,202,0.0,0.0,97,0.00,,---,0.01,VWS V14.01,2013-11-16 12:20:00,
2013-11-16 07:25:00,47.8,47.0,30.23,SSW,202,0.0,0.0,97,0.00,,---,0.01,VWS V14.01,2013-11-16 12:25:00,
2013-11-16 07:30:00,47.8,47.0,30.23,SSW,202,0.0,0.0,97,0.00,,---,0.01,VWS V14.01,2013-11-16 12:30:00,
2013-11-16 07:35:00,47.9,47.1,30.23,SSW,202,0.0,0.0,97,0.00,,---,0.01,VWS V14.01,2013-11-16 12:35:00,
2013-11-16 07:40:00,47.9,47.1,30.23,SSW,202,0.0,2.0,97,0.00,,---,0.01,VWS V14.01,2013-11-16 12:40:00,
2013-11-16 07:45:00,48.0,47.2,30.23,SSW,202,0.0,0.0,97,0.00,,---,0.01,VWS V14.01,2013-11-16 12:45:00,
2013-11-16 07:50:00,48.0,47.2,30.23,SSW,202,1.0,2.0,97,0.00,,---,0.01,VWS V14.01,2013-11-16 12:50:00,
2013-11-16 07:55:00,48.0,47.2,30.24,SSW,202,0.0,1.0,97,0.00,,---,0.01,VWS V14.01,2013-11-16 12:55:00,
2013-11-16 08:00:00,48.1,47.3,30.23,SSW,202,0.0,0.0,97,0.00,,---,0.01,VWS V14.01,2013-11-16 13:00:00,
2013-11-16 08:05:00,48.1,47.3,30.23,SSW,202,0.0,0.0,97,0.00,,---,0.01,VWS V14.01,2013-11-16 13:05:00,
2013-11-16 08:10:00,48.0,47.2,30.24,SSW,202,0.0,0.0,97,0.00,,---,0.01,VWS V14.01,2013-11-16 13:10:00,
2013-11-16 08:15:00,48.2,47.4,30.24,SSW,202,0.0,0.0,97,0.00,,---,0.01,VWS V14.01,2013-11-16 13:15:00,
2013-11-16 08:20:00,48.3,47.5,30.24,SSW,202,0.0,0.0,97,0.00,,---,0.01,VWS V14.01,2013-11-16 13:20:00,
2013-11-16 08:25:00,48.5,47.7,30.23,SSW,202,0.0,1.0,97,0.00,,---,0.01,VWS V14.01,2013-11-16 13:25:00,
2013-11-16 08:30:00,48.5,47.7,30.24,SSW,202,0.0,1.0,97,0.00,,---,0.01,VWS V14.01,2013-11-16 13:30:00,
2013-11-16 08:35:00,48.6,47.8,30.24,SSW,202,1.0,2.0,97,0.00,,---,0.01,VWS V14.01,2013-11-16 13:35:00,
2013-11-16 08:40:00,48.7,47.9,30.25,SSW,202,0.0,2.0,97,0.00,,---,0.01,VWS V14.01,2013-11-16 13:40:00,
2013-11-16 08:45:00,48.6,47.8,30.25,SSW,202,0.0,0.0,97,0.00,,---,0.01,VWS V14.01,2013-11-16 13:45:00,
2013-11-16 08:50:00,48.6,47.8,30.25,SSW,202,0.0,0.0,97,0.00,,---,0.01,VWS V14.01,2013-11-16 13:50:00,
2013-11-16 08:55:00,48.8,48.0,30.25,SSW,202,0.0,0.0,97,0.00,,---,0.01,VWS V14.01,2013-11-16 13:55:00,
2013-11-16 09:00:00,48.9,48.1,30.25,SSW,202,0.0,0.0,97,0.00,,---,0.01,VWS V14.01,2013-11-16 14:00:00,
2013-11-16 09:05:00,49.0,48.2,30.25,SSW,202,0.0,0.0,97,0.00,,---,0.01,VWS V14.01,2013-11-16 14:05:00,
2013-11-16 09:10:00,49.1,48.3,30.25,SSW,202,0.0,0.0,97,0.00,,---,0.01,VWS V14.01,2013-11-16 14:10:00,
2013-11-16 09:15:00,49.2,48.4,30.25,SSW,202,0.0,0.0,97,0.00,,---,0.01,VWS V14.01,2013-11-16 14:15:00,
2013-11-16 09:20:00,49.3,48.5,30.26,SSW,202,0.0,0.0,97,0.00,,---,0.01,VWS V14.01,2013-11-16 14:20:00,
2013-11-16 09:25:00,49.3,48.5,30.26,SSW,202,0.0,0.0,97,0.00,,---,0.01,VWS V14.01,2013-11-16 14:25:00,
2013-11-16 09:30:00,49.3,48.5,30.26,SSW,202,0.0,0.0,97,0.00,,---,0.01,VWS V14.01,2013-11-16 14:30:00,
2013-11-16 09:35:00,49.4,48.6,30.26,SSW,202,0.0,0.0,97,0.00,,---,0.01,VWS V14.01,2013-11-16 14:35:00,
2013-11-16 09:40:00,49.5,48.7,30.26,SSW,202,0.0,0.0,97,0.00,,---,0.01,VWS V14.01,2013-11-16 14:40:00,
2013-11-16 09:45:00,49.6,48.8,30.25,SSW,202,0.0,0.0,97,0.00,,---,0.01,VWS V14.01,2013-11-16 14:45:00,
2013-11-16 09:50:00,49.8,49.0,30.25,SSW,202,0.0,0.0,97,0.00,,---,0.01,VWS V14.01,2013-11-16 14:50:00,
2013-11-16 09:55:00,49.9,49.1,30.26,SSW,202,0.0,0.0,97,0.00,,---,0.01,VWS V14.01,2013-11-16 14:55:00,
2013-11-16 10:00:00,50.1,49.3,30.26,SSW,202,0.0,2.0,97,0.00,,---,0.01,VWS V14.01,2013-11-16 15:00:00,
2013-11-16 10:05:00,50.1,49.3,30.27,SSW,202,0.0,2.0,97,0.00,,---,0.01,VWS V14.01,2013-11-16 15:05:00,
2013-11-16 10:10:00,50.1,49.3,30.26,SSW,202,1.0,2.0,97,0.00,,---,0.01,VWS V14.01,2013-11-16 15:10:00,
2013-11-16 10:15:00,50.1,49.3,30.27,SSW,202,1.0,2.0,97,0.00,,---,0.01,VWS V14.01,2013-11-16 15:15:00,
2013-11-16 10:20:00,50.1,49.3,30.27,SSW,202,0.0,2.0,97,0.00,,---,0.01,VWS V14.01,2013-11-16 15:20:00,
2013-11-16 10:25:00,50.3,49.5,30.27,SSW,202,0.0,2.0,97,0.00,,---,0.01,VWS V14.01,2013-11-16 15:25:00,
2013-11-16 10:30:00,50.3,49.5,30.27,SSW,202,0.0,2.0,97,0.00,,---,0.01,VWS V14.01,2013-11-16 15:30:00,
2013-11-16 10:35:00,50.3,49.5,30.27,SSW,202,0.0,1.0,97,0.00,,---,0.01,VWS V14.01,2013-11-16 15:35:00,
2013-11-16 10:40:00,50.5,49.7,30.27,SSW,202,0.0,0.0,97,0.00,,---,0.01,VWS V14.01,2013-11-16 15:40:00,
2013-11-16 10:45:00,50.6,49.8,30.27,SSW,202,0.0,1.0,97,0.00,,---,0.01,VWS V14.01,2013-11-16 15:45:00,
2013-11-16 10:50:00,50.8,50.0,30.27,SSW,202,0.0,1.0,97,0.00,,---,0.01,VWS V14.01,2013-11-16 15:50:00,
2013-11-16 10:55:00,50.8,50.0,30.26,SSW,202,0.0,2.0,97,0.00,,---,0.01,VWS V14.01,2013-11-16 15:55:00,
2013-11-16 11:00:00,51.1,50.3,30.26,SSW,202,0.0,0.0,97,0.00,,---,0.01,VWS V14.01,2013-11-16 16:00:00,
2013-11-16 11:05:00,51.3,50.5,30.27,SSW,202,0.0,2.0,97,0.00,,---,0.01,VWS V14.01,2013-11-16 16:05:00,
2013-11-16 11:10:00,51.3,50.5,30.27,SSW,202,1.0,3.0,97,0.00,,---,0.01,VWS V14.01,2013-11-16 16:10:00,
2013-11-16 11:15:00,51.4,50.6,30.27,SSW,202,1.0,3.0,97,0.00,,---,0.01,VWS V14.01,2013-11-16 16:15:00,
2013-11-16 11:20:00,51.6,50.8,30.27,SSW,202,1.0,3.0,97,0.00,,---,0.01,VWS V14.01,2013-11-16 16:20:00,
2013-11-16 11:25:00,51.8,51.0,30.26,SSW,202,0.0,2.0,97,0.00,,---,0.01,VWS V14.01,2013-11-16 16:25:00,
2013-11-16 11:30:00,51.7,50.6,30.26,SSW,202,0.0,2.0,96,0.00,,---,0.01,VWS V14.01,2013-11-16 16:30:00,
2013-11-16 11:35:00,51.5,50.4,30.25,SSW,202,0.0,2.0,96,0.00,,---,0.01,VWS V14.01,2013-11-16 16:35:00,
2013-11-16 11:40:00,51.6,50.5,30.26,SSW,202,0.0,2.0,96,0.00,,---,0.01,VWS V14.01,2013-11-16 16:40:00,
2013-11-16 11:45:00,51.5,50.4,30.26,SSW,202,0.0,3.0,96,0.00,,---,0.01,VWS V14.01,2013-11-16 16:45:00,
2013-11-16 11:50:00,51.5,50.4,30.25,SSW,202,0.0,0.0,96,0.00,,---,0.01,VWS V14.01,2013-11-16 16:50:00,
2013-11-16 11:55:00,51.7,50.6,30.25,SSW,202,0.0,0.0,96,0.00,,---,0.01,VWS V14.01,2013-11-16 16:55:00,
2013-11-16 12:00:00,52.0,50.9,30.25,SSW,202,0.0,0.0,96,0.00,,---,0.01,VWS V14.01,2013-11-16 17:00:00,
2013-11-16 12:05:00,52.3,51.2,30.25,SSW,202,1.0,3.0,96,0.00,,---,0.01,VWS V14.01,2013-11-16 17:05:00,
2013-11-16 12:10:00,52.3,50.9,30.25,SSW,202,0.0,2.0,95,0.00,,---,0.01,VWS V14.01,2013-11-16 17:10:00,
2013-11-16 12:15:00,52.4,51.0,30.25,SSW,202,0.0,1.0,95,0.00,,---,0.01,VWS V14.01,2013-11-16 17:15:00,
2013-11-16 12:20:00,52.4,51.0,30.25,SSW,202,0.0,2.0,95,0.00,,---,0.01,VWS V14.01,2013-11-16 17:20:00,
2013-11-16 12:25:00,52.6,51.2,30.25,SSW,202,0.0,2.0,95,0.00,,---,0.01,VWS V14.01,2013-11-16 17:25:00,
2013-11-16 12:30:00,52.6,51.2,30.24,SSW,202,0.0,2.0,95,0.00,,---,0.01,VWS V14.01,2013-11-16 17:30:00,
2013-11-16 12:35:00,52.7,51.3,30.24,SSW,202,0.0,2.0,95,0.00,,---,0.01,VWS V14.01,2013-11-16 17:35:00,
2013-11-16 12:40:00,52.6,50.9,30.24,SSW,202,1.0,3.0,94,0.00,,---,0.01,VWS V14.01,2013-11-16 17:40:00,
2013-11-16 12:45:00,52.7,51.0,30.24,SSW,202,0.0,0.0,94,0.00,,---,0.01,VWS V14.01,2013-11-16 17:45:00,
2013-11-16 12:50:00,52.7,51.0,30.24,SSW,202,0.0,1.0,94,0.00,,---,0.01,VWS V14.01,2013-11-16 17:50:00,
2013-11-16 12:55:00,53.1,51.7,30.24,SSW,202,1.0,3.0,95,0.00,,---,0.01,VWS V14.01,2013-11-16 17:55:00,
2013-11-16 13:00:00,53.0,51.3,30.24,SSW,202,1.0,3.0,94,0.00,,---,0.01,VWS V14.01,2013-11-16 18:00:00,
2013-11-16 13:05:00,53.2,51.5,30.24,SSW,202,1.0,4.0,94,0.00,,---,0.01,VWS V14.01,2013-11-16 18:05:00,
2013-11-16 13:10:00,53.3,51.6,30.23,SSW,202,0.0,3.0,94,0.00,,---,0.01,VWS V14.01,2013-11-16 18:10:00,
2013-11-16 13:15:00,53.5,51.8,30.23,SSW,202,1.0,3.0,94,0.00,,---,0.01,VWS V14.01,2013-11-16 18:15:00,
2013-11-16 13:20:00,53.5,51.8,30.23,SSW,202,2.0,4.0,94,0.00,,---,0.01,VWS V14.01,2013-11-16 18:20:00,
2013-11-16 13:25:00,53.5,51.8,30.22,SSW,202,1.0,4.0,94,0.00,,---,0.01,VWS V14.01,2013-11-16 18:25:00,
2013-11-16 13:30:00,53.6,51.9,30.22,SSW,202,1.0,3.0,94,0.00,,---,0.01,VWS V14.01,2013-11-16 18:30:00,
2013-11-16 13:35:00,53.7,51.7,30.22,SSW,202,0.0,2.0,93,0.00,,---,0.01,VWS V14.01,2013-11-16 18:35:00,
2013-11-16 13:40:00,53.9,52.2,30.22,SW,225,0.0,4.0,94,0.00,,---,0.01,VWS V14.01,2013-11-16 18:40:00,
2013-11-16 13:45:00,54.1,52.1,30.22,SW,225,1.0,3.0,93,0.00,,---,0.01,VWS V14.01,2013-11-16 18:45:00,
2013-11-16 13:50:00,54.2,52.2,30.22,SW,225,0.0,0.0,93,0.00,,---,0.01,VWS V14.01,2013-11-16 18:50:00,
2013-11-16 13:55:00,54.4,52.4,30.22,SW,225,0.0,0.0,93,0.00,,---,0.01,VWS V14.01,2013-11-16 18:55:00,
2013-11-16 14:00:00,54.6,52.6,30.22,SW,225,0.0,8.0,93,0.00,,---,0.01,VWS V14.01,2013-11-16 19:00:00,
2013-11-16 14:05:00,54.7,52.4,30.21,ESE,112,1.0,8.0,92,0.00,,---,0.01,VWS V14.01,2013-11-16 19:05:00,
2013-11-16 14:10:00,55.0,53.0,30.21,ESE,112,2.0,5.0,93,0.00,,---,0.01,VWS V14.01,2013-11-16 19:10:00,
2013-11-16 14:15:00,55.0,52.7,30.21,ESE,112,1.0,4.0,92,0.00,,---,0.01,VWS V14.01,2013-11-16 19:15:00,
2013-11-16 14:20:00,55.0,52.7,30.20,SE,135,3.0,5.0,92,0.00,,---,0.01,VWS V14.01,2013-11-16 19:20:00,
2013-11-16 14:25:00,55.1,52.8,30.20,SE,135,1.0,4.0,92,0.00,,---,0.01,VWS V14.01,2013-11-16 19:25:00,
2013-11-16 14:30:00,55.3,53.0,30.20,SE,135,2.0,4.0,92,0.00,,---,0.01,VWS V14.01,2013-11-16 19:30:00,
2013-11-16 14:35:00,55.3,53.0,30.20,SE,135,1.0,4.0,92,0.00,,---,0.01,VWS V14.01,2013-11-16 19:35:00,
2013-11-16 14:40:00,55.3,52.7,30.19,SE,135,1.0,4.0,91,0.00,,---,0.01,VWS V14.01,2013-11-16 19:40:00,
2013-11-16 14:45:00,55.4,52.8,30.19,SE,135,0.0,2.0,91,0.00,,---,0.01,VWS V14.01,2013-11-16 19:45:00,
2013-11-16 14:50:00,55.4,52.8,30.19,SE,135,0.0,1.0,91,0.00,,---,0.01,VWS V14.01,2013-11-16 19:50:00,
2013-11-16 14:55:00,55.5,52.9,30.19,SE,135,1.0,4.0,91,0.00,,---,0.01,VWS V14.01,2013-11-16 19:55:00,
2013-11-16 15:00:00,55.6,53.0,30.19,SE,135,0.0,2.0,91,0.00,,---,0.01,VWS V14.01,2013-11-16 20:00:00,
2013-11-16 15:05:00,55.6,53.0,30.19,SE,135,0.0,4.0,91,0.00,,---,0.01,VWS V14.01,2013-11-16 20:05:00,
2013-11-16 15:10:00,55.6,52.7,30.19,SE,135,1.0,2.0,90,0.00,,---,0.01,VWS V14.01,2013-11-16 20:10:00,
2013-11-16 15:15:00,55.6,52.7,30.19,SE,135,1.0,4.0,90,0.00,,---,0.01,VWS V14.01,2013-11-16 20:15:00,
2013-11-16 15:20:00,55.5,52.6,30.19,SE,135,0.0,0.0,90,0.00,,---,0.01,VWS V14.01,2013-11-16 20:20:00,
2013-11-16 15:25:00,55.6,52.7,30.19,SE,135,0.0,2.0,90,0.00,,---,0.01,VWS V14.01,2013-11-16 20:25:00,
2013-11-16 15:30:00,55.6,52.7,30.20,SE,135,0.0,0.0,90,0.00,,---,0.01,VWS V14.01,2013-11-16 20:30:00,
2013-11-16 15:35:00,55.5,52.6,30.20,SE,135,0.0,0.0,90,0.00,,---,0.01,VWS V14.01,2013-11-16 20:35:00,
2013-11-16 15:40:00,55.6,52.7,30.20,SE,135,0.0,0.0,90,0.00,,---,0.01,VWS V14.01,2013-11-16 20:40:00,
2013-11-16 15:45:00,55.6,52.7,30.20,SE,135,0.0,0.0,90,0.00,,---,0.01,VWS V14.01,2013-11-16 20:45:00,
2013-11-16 15:50:00,55.6,52.7,30.20,SE,135,0.0,0.0,90,0.00,,---,0.01,VWS V14.01,2013-11-16 20:50:00,
2013-11-16 15:55:00,55.6,52.7,30.20,SE,135,0.0,1.0,90,0.00,,---,0.01,VWS V14.01,2013-11-16 20:55:00,
2013-11-16 16:00:00,55.6,52.7,30.20,SE,135,0.0,0.0,90,0.00,,---,0.01,VWS V14.01,2013-11-16 21:00:00,
2013-11-16 16:05:00,55.6,52.7,30.20,SE,135,0.0,0.0,90,0.00,,---,0.01,VWS V14.01,2013-11-16 21:05:00,
2013-11-16 16:10:00,55.6,52.7,30.20,SE,135,0.0,0.0,90,0.00,,---,0.01,VWS V14.01,2013-11-16 21:10:00,
2013-11-16 16:15:00,55.5,52.6,30.20,SE,135,0.0,0.0,90,0.00,,---,0.01,VWS V14.01,2013-11-16 21:15:00,
2013-11-16 16:20:00,55.4,52.5,30.20,SE,135,0.0,2.0,90,0.00,,---,0.01,VWS V14.01,2013-11-16 21:20:00,
2013-11-16 16:25:00,55.4,52.5,30.20,SE,135,0.0,0.0,90,0.00,,---,0.01,VWS V14.01,2013-11-16 21:25:00,
2013-11-16 16:30:00,55.3,52.4,30.20,SE,135,0.0,1.0,90,0.00,,---,0.01,VWS V14.01,2013-11-16 21:30:00,
2013-11-16 16:35:00,55.2,52.3,30.19,SE,135,0.0,2.0,90,0.00,,---,0.01,VWS V14.01,2013-11-16 21:35:00,
2013-11-16 16:40:00,55.1,52.2,30.19,SE,135,0.0,0.0,90,0.00,,---,0.01,VWS V14.01,2013-11-16 21:40:00,
2013-11-16 16:45:00,55.1,52.5,30.19,SE,135,0.0,1.0,91,0.00,,---,0.01,VWS V14.01,2013-11-16 21:45:00,
2013-11-16 16:50:00,55.0,52.4,30.19,SE,135,0.0,1.0,91,0.00,,---,0.01,VWS V14.01,2013-11-16 21:50:00,
2013-11-16 16:55:00,55.0,52.4,30.20,SE,135,0.0,0.0,91,0.00,,---,0.01,VWS V14.01,2013-11-16 21:55:00,
2013-11-16 17:00:00,54.9,52.3,30.20,SE,135,0.0,0.0,91,0.00,,---,0.01,VWS V14.01,2013-11-16 22:00:00,
2013-11-16 17:05:00,54.8,52.2,30.20,SE,135,0.0,0.0,91,0.00,,---,0.01,VWS V14.01,2013-11-16 22:05:00,
2013-11-16 17:10:00,54.7,52.4,30.20,SE,135,0.0,1.0,92,0.00,,---,0.01,VWS V14.01,2013-11-16 22:10:00,
2013-11-16 17:15:00,54.7,52.4,30.20,SE,135,0.0,0.0,92,0.00,,---,0.01,VWS V14.01,2013-11-16 22:15:00,
2013-11-16 17:20:00,54.5,52.2,30.20,SE,135,0.0,0.0,92,0.00,,---,0.01,VWS V14.01,2013-11-16 22:20:00,
2013-11-16 17:25:00,54.4,52.4,30.20,SE,135,0.0,0.0,93,0.00,,---,0.01,VWS V14.01,2013-11-16 22:25:00,
2013-11-16 17:30:00,54.4,52.4,30.21,SE,135,0.0,0.0,93,0.00,,---,0.01,VWS V14.01,2013-11-16 22:30:00,
2013-11-16 17:35:00,54.3,52.3,30.21,SE,135,0.0,0.0,93,0.00,,---,0.01,VWS V14.01,2013-11-16 22:35:00,
2013-11-16 17:40:00,54.2,52.2,30.21,SE,135,0.0,0.0,93,0.00,,---,0.01,VWS V14.01,2013-11-16 22:40:00,
2013-11-16 17:45:00,54.2,52.2,30.21,SE,135,0.0,0.0,93,0.00,,---,0.01,VWS V14.01,2013-11-16 22:45:00,
2013-11-16 17:50:00,54.1,52.4,30.21,SE,135,0.0,0.0,94,0.00,,---,0.01,VWS V14.01,2013-11-16 22:50:00,
2013-11-16 17:55:00,54.0,52.3,30.21,SE,135,0.0,0.0,94,0.00,,---,0.01,VWS V14.01,2013-11-16 22:55:00,
2013-11-16 18:00:00,53.9,52.2,30.21,SE,135,0.0,0.0,94,0.00,,---,0.01,VWS V14.01,2013-11-16 23:00:00,
2013-11-16 18:05:00,53.8,52.1,30.21,SE,135,0.0,0.0,94,0.00,,---,0.01,VWS V14.01,2013-11-16 23:05:00,
2013-11-16 18:10:00,53.7,52.3,30.21,SE,135,0.0,0.0,95,0.00,,---,0.01,VWS V14.01,2013-11-16 23:10:00,
2013-11-16 18:15:00,53.7,52.3,30.21,SE,135,0.0,0.0,95,0.00,,---,0.01,VWS V14.01,2013-11-16 23:15:00,
2013-11-16 18:20:00,53.6,52.2,30.22,SE,135,0.0,0.0,95,0.00,,---,0.01,VWS V14.01,2013-11-16 23:20:00,
2013-11-16 18:25:00,53.6,52.2,30.22,SE,135,0.0,0.0,95,0.00,,---,0.01,VWS V14.01,2013-11-16 23:25:00,
2013-11-16 18:30:00,53.6,52.2,30.22,SE,135,0.0,0.0,95,0.00,,---,0.01,VWS V14.01,2013-11-16 23:30:00,
2013-11-16 18:35:00,53.6,52.2,30.22,SE,135,0.0,0.0,95,0.00,,---,0.01,VWS V14.01,2013-11-16 23:35:00,
2013-11-16 18:40:00,53.6,52.5,30.23,SE,135,0.0,0.0,96,0.00,,---,0.01,VWS V14.01,2013-11-16 23:40:00,
2013-11-16 18:45:00,53.5,52.4,30.22,SE,135,0.0,4.0,96,0.00,,---,0.01,VWS V14.01,2013-11-16 23:45:00,
2013-11-16 18:50:00,53.5,52.4,30.22,SE,135,1.0,4.0,96,0.00,,---,0.01,VWS V14.01,2013-11-16 23:50:00,
2013-11-16 18:55:00,53.5,52.4,30.22,SE,135,1.0,2.0,96,0.00,,---,0.01,VWS V14.01,2013-11-16 23:55:00,
2013-11-16 19:00:00,53.5,52.4,30.22,SE,135,0.0,2.0,96,0.00,,---,0.01,VWS V14.01,2013-11-17 00:00:00,
2013-11-16 19:05:00,53.5,52.4,30.23,SE,135,1.0,4.0,96,0.00,,---,0.01,VWS V14.01,2013-11-17 00:05:00,
2013-11-16 19:10:00,53.5,52.4,30.22,SSE,158,1.0,4.0,96,0.00,,---,0.01,VWS V14.01,2013-11-17 00:10:00,
2013-11-16 19:15:00,53.4,52.3,30.22,SSE,158,2.0,5.0,96,0.00,,---,0.01,VWS V14.01,2013-11-17 00:15:00,
2013-11-16 19:20:00,53.3,52.2,30.22,South,180,2.0,5.0,96,0.00,,---,0.01,VWS V14.01,2013-11-17 00:20:00,
2013-11-16 19:25:00,53.3,52.2,30.22,South,180,1.0,4.0,96,0.00,,---,0.01,VWS V14.01,2013-11-17 00:25:00,
2013-11-16 19:30:00,53.2,52.1,30.22,SSW,202,2.0,4.0,96,0.00,,---,0.01,VWS V14.01,2013-11-17 00:30:00,
2013-11-16 19:35:00,53.2,52.1,30.23,WSW,248,1.0,4.0,96,0.00,,---,0.01,VWS V14.01,2013-11-17 00:35:00,
2013-11-16 19:40:00,53.2,52.1,30.22,WSW,248,0.0,2.0,96,0.00,,---,0.01,VWS V14.01,2013-11-17 00:40:00,
2013-11-16 19:45:00,53.2,52.1,30.23,WSW,248,0.0,2.0,96,0.00,,---,0.01,VWS V14.01,2013-11-17 00:45:00,
2013-11-16 19:50:00,53.2,52.1,30.22,WSW,248,1.0,3.0,96,0.00,,---,0.01,VWS V14.01,2013-11-17 00:50:00,
2013-11-16 19:55:00,53.1,52.0,30.22,WSW,248,0.0,0.0,96,0.00,,---,0.01,VWS V14.01,2013-11-17 00:55:00,
2013-11-16 20:00:00,53.1,52.0,30.22,WSW,248,0.0,0.0,96,0.00,,---,0.01,VWS V14.01,2013-11-17 01:00:00,
2013-11-16 20:05:00,53.1,52.0,30.22,WSW,248,0.0,0.0,96,0.01,,---,0.02,VWS V14.01,2013-11-17 01:05:00,
2013-11-16 20:10:00,53.0,52.2,30.22,WSW,248,0.0,1.0,97,0.01,,---,0.02,VWS V14.01,2013-11-17 01:10:00,
2013-11-16 20:15:00,53.0,51.9,30.22,WSW,248,0.0,0.0,96,0.01,,---,0.02,VWS V14.01,2013-11-17 01:15:00,
2013-11-16 20:20:00,53.0,51.9,30.22,WSW,248,0.0,2.0,96,0.01,,---,0.02,VWS V14.01,2013-11-17 01:20:00,
2013-11-16 20:25:00,53.0,51.9,30.22,WSW,248,0.0,2.0,96,0.01,,---,0.02,VWS V14.01,2013-11-17 01:25:00,
2013-11-16 20:30:00,52.9,51.8,30.22,WSW,248,0.0,0.0,96,0.01,,---,0.02,VWS V14.01,2013-11-17 01:30:00,
2013-11-16 20:35:00,52.9,51.8,30.22,WSW,248,0.0,2.0,96,0.01,,---,0.02,VWS V14.01,2013-11-17 01:35:00,
2013-11-16 20:40:00,52.8,52.0,30.22,WSW,248,0.0,1.0,97,0.01,,---,0.02,VWS V14.01,2013-11-17 01:40:00,
2013-11-16 20:45:00,52.7,51.9,30.22,WSW,248,0.0,0.0,97,0.01,,---,0.02,VWS V14.01,2013-11-17 01:45:00,
2013-11-16 20:50:00,52.7,51.9,30.21,WSW,248,0.0,0.0,97,0.01,,---,0.02,VWS V14.01,2013-11-17 01:50:00,
2013-11-16 20:55:00,52.7,51.9,30.22,WSW,248,0.0,0.0,97,0.01,,---,0.02,VWS V14.01,2013-11-17 01:55:00,
2013-11-16 21:00:00,52.6,51.8,30.22,WSW,248,0.0,0.0,97,0.01,,---,0.02,VWS V14.01,2013-11-17 02:00:00,
2013-11-16 21:05:00,52.6,51.8,30.22,WSW,248,0.0,0.0,97,0.01,,---,0.02,VWS V14.01,2013-11-17 02:05:00,
2013-11-16 21:10:00,52.5,51.7,30.22,WSW,248,0.0,0.0,97,0.00,,---,0.02,VWS V14.01,2013-11-17 02:10:00,
2013-11-16 21:15:00,52.4,51.6,30.22,WSW,248,0.0,0.0,97,0.00,,---,0.02,VWS V14.01,2013-11-17 02:15:00,
2013-11-16 21:20:00,52.4,51.6,30.22,WSW,248,0.0,0.0,97,0.00,,---,0.02,VWS V14.01,2013-11-17 02:20:00,
2013-11-16 21:25:00,52.4,51.6,30.22,WSW,248,0.0,0.0,97,0.00,,---,0.02,VWS V14.01,2013-11-17 02:25:00,
2013-11-16 21:30:00,52.4,51.6,30.22,WSW,248,1.0,3.0,97,0.00,,---,0.02,VWS V14.01,2013-11-17 02:30:00,
2013-11-16 21:35:00,52.5,51.7,30.22,WSW,248,1.0,3.0,97,0.00,,---,0.02,VWS V14.01,2013-11-17 02:35:00,
2013-11-16 21:40:00,52.6,51.8,30.22,WSW,248,1.0,2.0,97,0.00,,---,0.02,VWS V14.01,2013-11-17 02:40:00,
2013-11-16 21:45:00,52.7,51.9,30.22,WSW,248,1.0,3.0,97,0.00,,---,0.02,VWS V14.01,2013-11-17 02:45:00,
2013-11-16 21:50:00,52.7,51.9,30.22,WSW,248,1.0,3.0,97,0.00,,---,0.02,VWS V14.01,2013-11-17 02:50:00,
2013-11-16 21:55:00,52.7,51.9,30.22,WSW,248,1.0,3.0,97,0.00,,---,0.02,VWS V14.01,2013-11-17 02:55:00,
2013-11-16 22:00:00,52.7,51.9,30.21,WSW,248,2.0,3.0,97,0.00,,---,0.02,VWS V14.01,2013-11-17 03:00:00,
2013-11-16 22:05:00,52.7,51.9,30.21,WSW,248,1.0,3.0,97,0.00,,---,0.02,VWS V14.01,2013-11-17 03:05:00,
2013-11-16 22:10:00,52.7,51.9,30.22,WSW,248,0.0,1.0,97,0.00,,---,0.02,VWS V14.01,2013-11-17 03:10:00,
2013-11-16 22:15:00,52.6,51.8,30.21,WSW,248,0.0,0.0,97,0.00,,---,0.02,VWS V14.01,2013-11-17 03:15:00,
2013-11-16 22:20:00,52.6,51.8,30.21,WSW,248,0.0,1.0,97,0.00,,---,0.02,VWS V14.01,2013-11-17 03:20:00,
2013-11-16 22:25:00,52.6,51.8,30.21,WSW,248,0.0,0.0,97,0.00,,---,0.02,VWS V14.01,2013-11-17 03:25:00,
2013-11-16 22:30:00,52.6,51.8,30.21,WSW,248,0.0,0.0,97,0.00,,---,0.02,VWS V14.01,2013-11-17 03:30:00,
2013-11-16 22:35:00,52.6,51.8,30.21,WSW,248,0.0,0.0,97,0.00,,---,0.02,VWS V14.01,2013-11-17 03:35:00,
2013-11-16 22:40:00,52.6,51.8,30.21,WSW,248,0.0,0.0,97,0.00,,---,0.02,VWS V14.01,2013-11-17 03:40:00,
2013-11-16 22:45:00,52.7,51.9,30.21,WSW,248,0.0,0.0,97,0.00,,---,0.02,VWS V14.01,2013-11-17 03:45:00,
2013-11-16 22:50:00,52.7,51.9,30.21,WSW,248,0.0,1.0,97,0.00,,---,0.02,VWS V14.01,2013-11-17 03:50:00,
2013-11-16 22:55:00,52.6,51.8,30.21,WSW,248,0.0,0.0,97,0.00,,---,0.02,VWS V14.01,2013-11-17 03:55:00,
2013-11-16 23:00:00,52.5,51.7,30.21,WSW,248,0.0,0.0,97,0.00,,---,0.02,VWS V14.01,2013-11-17 04:00:00,
2013-11-16 23:05:00,52.5,51.7,30.21,WSW,248,0.0,0.0,97,0.00,,---,0.02,VWS V14.01,2013-11-17 04:05:00,
2013-11-16 23:10:00,52.5,51.7,30.20,WSW,248,0.0,1.0,97,0.00,,---,0.02,VWS V14.01,2013-11-17 04:10:00,
2013-11-16 23:15:00,52.5,51.7,30.21,WSW,248,1.0,2.0,97,0.00,,---,0.02,VWS V14.01,2013-11-17 04:15:00,
2013-11-16 23:20:00,52.4,51.6,30.21,WSW,248,1.0,2.0,97,0.00,,---,0.02,VWS V14.01,2013-11-17 04:20:00,
2013-11-16 23:25:00,52.4,51.6,30.21,WSW,248,0.0,2.0,97,0.00,,---,0.02,VWS V14.01,2013-11-17 04:25:00,
2013-11-16 23:30:00,52.3,51.5,30.21,WSW,248,0.0,1.0,97,0.00,,---,0.02,VWS V14.01,2013-11-17 04:30:00,
2013-11-16 23:35:00,52.4,51.6,30.21,WSW,248,1.0,2.0,97,0.00,,---,0.02,VWS V14.01,2013-11-17 04:35:00,
2013-11-16 23:40:00,52.4,51.6,30.21,WSW,248,0.0,2.0,97,0.00,,---,0.02,VWS V14.01,2013-11-17 04:40:00,
2013-11-16 23:45:00,52.4,51.6,30.20,WSW,248,0.0,0.0,97,0.00,,---,0.02,VWS V14.01,2013-11-17 04:45:00,
2013-11-16 23:50:00,52.4,51.6,30.20,WSW,248,0.0,0.0,97,0.00,,---,0.02,VWS V14.01,2013-11-17 04:50:00,
2013-11-16 23:55:00,52.4,51.6,30.20,WSW,248,0.0,2.0,97,0.00,,---,0.02,VWS V14.01,2013-11-17 04:55:00,